createdAt,value
2022-12-29T00:01:24.354Z,41.58
2022-12-29T00:03:53.862Z,36.53
2022-12-29T00:06:25.811Z,32.85
2022-12-29T00:08:58.035Z,30.92
2022-12-29T00:11:29.721Z,32.40
2022-12-29T00:14:21.436Z,33.40
2022-12-29T00:16:53.411Z,33.28
2022-12-29T00:19:41.741Z,33.08
2022-12-29T00:22:34.477Z,33.42
2022-12-29T00:25:22.646Z,32.65
2022-12-29T00:28:09.889Z,29.85
2022-12-29T00:30:57.823Z,30.88
2022-12-29T00:33:52.793Z,31.08
2022-12-29T00:36:28.396Z,31.95
2022-12-29T00:39:24.818Z,31.67
2022-12-29T00:42:12.110Z,29.60
2022-12-29T00:44:41.320Z,33.13
2022-12-29T00:47:10.599Z,31.25
2022-12-29T00:49:42.614Z,33.95
2022-12-29T00:52:15.364Z,34.50
2022-12-29T00:54:46.815Z,36.30
2022-12-29T00:57:16.757Z,37.22
2022-12-29T00:59:47.290Z,33.13
2022-12-29T01:02:16.658Z,29.10
2022-12-29T01:04:46.177Z,27.13
2022-12-29T01:07:15.380Z,26.80
2022-12-29T01:10:02.880Z,24.20
2022-12-29T01:12:45.861Z,22.50
2022-12-29T01:15:17.700Z,25.70
2022-12-29T01:17:47.917Z,20.52
2022-12-29T01:20:17.393Z,19.33
2022-12-29T01:22:47.496Z,20.83
2022-12-29T01:25:16.747Z,20.20
2022-12-29T01:27:47.539Z,20.58
2022-12-29T01:30:16.782Z,19.55
2022-12-29T01:32:47.652Z,20.65
2022-12-29T01:35:16.934Z,15.10
2022-12-29T01:37:47.609Z,15.75
2022-12-29T01:40:16.982Z,15.75
2022-12-29T01:42:47.610Z,12.00
2022-12-29T01:45:19.834Z,11.43
2022-12-29T01:48:05.982Z,11.95
2022-12-29T01:50:44.666Z,9.90
2022-12-29T01:56:07.174Z,9.60
2022-12-29T01:58:42.420Z,9.63
2022-12-29T02:01:11.888Z,10.25
2022-12-29T02:03:41.310Z,9.98
2022-12-29T02:06:36.955Z,8.25
2022-12-29T02:09:06.246Z,10.93
2022-12-29T02:11:37.815Z,10.45
2022-12-29T02:14:13.827Z,8.35
2022-12-29T02:16:58.311Z,8.07
2022-12-29T02:20:01.016Z,8.65
2022-12-29T02:22:47.975Z,8.00
2022-12-29T02:26:13.391Z,7.15
2022-12-29T02:29:31.068Z,8.38
2022-12-29T02:32:10.236Z,8.35
2022-12-29T02:35:00.604Z,8.30
2022-12-29T02:37:54.469Z,8.02
2022-12-29T02:40:41.209Z,7.93
2022-12-29T02:44:02.606Z,8.18
2022-12-29T02:47:14.635Z,7.18
2022-12-29T02:50:12.025Z,9.55
2022-12-29T02:53:16.145Z,8.10
2022-12-29T02:55:54.391Z,8.82
2022-12-29T02:58:25.976Z,8.15
2022-12-29T03:01:39.679Z,8.35
2022-12-29T03:04:50.564Z,7.65
2022-12-29T03:07:46.854Z,7.97
2022-12-29T03:10:48.217Z,7.72
2022-12-29T03:14:04.522Z,7.50
2022-12-29T03:16:47.210Z,7.30
2022-12-29T03:19:34.215Z,9.02
2022-12-29T03:22:33.204Z,7.72
2022-12-29T03:25:32.942Z,8.38
2022-12-29T03:28:38.976Z,6.97
2022-12-29T03:31:14.602Z,7.50
2022-12-29T03:33:46.354Z,6.43
2022-12-29T03:36:40.031Z,7.78
2022-12-29T03:39:15.891Z,7.13
2022-12-29T03:41:48.000Z,8.40
2022-12-29T03:44:17.163Z,6.55
2022-12-29T03:46:46.355Z,6.28
2022-12-29T03:49:15.427Z,6.55
2022-12-29T03:51:44.571Z,6.85
2022-12-29T03:54:16.687Z,6.57
2022-12-29T03:56:46.930Z,6.07
2022-12-29T03:59:16.023Z,6.43
2022-12-29T04:01:45.389Z,7.93
2022-12-29T04:04:14.749Z,6.22
2022-12-29T04:06:44.182Z,5.53
2022-12-29T04:09:13.620Z,6.35
2022-12-29T04:11:42.813Z,5.47
2022-12-29T04:14:11.976Z,6.93
2022-12-29T04:16:41.094Z,6.15
2022-12-29T04:19:10.874Z,6.63
2022-12-29T04:21:40.044Z,6.95
2022-12-29T04:24:09.969Z,7.68
2022-12-29T04:26:42.397Z,6.95
2022-12-29T04:29:11.609Z,7.35
2022-12-29T04:31:40.899Z,6.95
2022-12-29T04:34:10.387Z,6.38
2022-12-29T04:36:40.812Z,5.15
2022-12-29T04:39:10.117Z,6.13
2022-12-29T04:41:40.202Z,5.82
2022-12-29T04:44:09.353Z,5.93
2022-12-29T04:46:39.591Z,6.60
2022-12-29T04:49:10.484Z,4.47
2022-12-29T04:51:39.601Z,4.68
2022-12-29T04:54:08.744Z,5.57
2022-12-29T04:56:37.810Z,5.80
2022-12-29T04:59:07.208Z,6.38
2022-12-29T05:01:36.882Z,5.45
2022-12-29T05:04:06.327Z,5.13
2022-12-29T05:06:35.487Z,5.47
2022-12-29T05:09:04.660Z,5.30
2022-12-29T05:11:34.778Z,5.32
2022-12-29T05:14:03.870Z,8.52
2022-12-29T05:16:33.049Z,6.95
2022-12-29T05:19:02.838Z,5.63
2022-12-29T05:21:31.938Z,5.55
2022-12-29T05:24:01.131Z,6.13
2022-12-29T05:26:30.354Z,5.63
2022-12-29T05:28:59.496Z,6.13
2022-12-29T05:31:29.445Z,6.47
2022-12-29T05:33:58.780Z,5.05
2022-12-29T05:36:28.981Z,4.43
2022-12-29T05:38:59.696Z,4.88
2022-12-29T05:41:29.391Z,5.28
2022-12-29T05:43:58.607Z,4.68
2022-12-29T05:46:27.978Z,5.78
2022-12-29T05:48:57.229Z,5.35
2022-12-29T05:51:26.427Z,4.90
2022-12-29T05:53:55.783Z,8.05
2022-12-29T05:56:25.242Z,3.22
2022-12-29T06:01:37.987Z,4.22
2022-12-29T06:04:07.457Z,3.95
2022-12-29T06:06:36.723Z,3.17
2022-12-29T06:09:05.983Z,3.08
2022-12-29T06:11:35.179Z,3.00
2022-12-29T06:14:04.411Z,3.85
2022-12-29T06:16:33.667Z,3.30
2022-12-29T06:19:02.887Z,3.47
2022-12-29T06:21:32.106Z,4.15
2022-12-29T06:26:52.646Z,3.53
2022-12-29T06:32:19.667Z,3.30
2022-12-29T06:34:52.021Z,3.25
2022-12-29T06:37:21.241Z,3.85
2022-12-29T06:39:50.393Z,3.95
2022-12-29T06:42:20.220Z,3.53
2022-12-29T06:44:49.516Z,3.75
2022-12-29T06:47:18.734Z,3.75
2022-12-29T06:49:48.588Z,3.10
2022-12-29T06:52:17.946Z,3.05
2022-12-29T06:54:47.162Z,3.33
2022-12-29T06:57:16.310Z,3.85
2022-12-29T06:59:45.727Z,3.50
2022-12-29T07:02:20.301Z,3.58
2022-12-29T07:04:49.608Z,3.33
2022-12-29T07:07:18.791Z,3.70
2022-12-29T07:09:48.760Z,3.80
2022-12-29T07:12:17.980Z,2.65
2022-12-29T07:14:47.190Z,2.92
2022-12-29T07:17:16.374Z,2.78
2022-12-29T07:19:46.679Z,3.20
2022-12-29T07:22:15.913Z,2.67
2022-12-29T07:24:46.491Z,3.90
2022-12-29T07:27:16.474Z,3.03
2022-12-29T07:29:45.785Z,3.55
2022-12-29T07:32:15.099Z,2.67
2022-12-29T07:34:46.959Z,3.00
2022-12-29T07:37:20.351Z,2.63
2022-12-29T07:39:49.556Z,3.60
2022-12-29T07:42:19.018Z,2.60
2022-12-29T07:44:48.142Z,2.63
2022-12-29T07:47:18.116Z,2.88
2022-12-29T07:49:47.364Z,2.83
2022-12-29T07:52:16.560Z,2.63
2022-12-29T07:54:45.777Z,3.40
2022-12-29T07:57:15.290Z,3.50
2022-12-29T07:59:44.358Z,2.70
2022-12-29T08:02:14.394Z,3.10
2022-12-29T08:04:43.604Z,2.67
2022-12-29T08:07:12.683Z,2.67
2022-12-29T08:09:41.803Z,2.85
2022-12-29T08:12:13.182Z,2.72
2022-12-29T08:14:42.301Z,2.85
2022-12-29T08:17:12.060Z,3.40
2022-12-29T08:19:41.959Z,3.10
2022-12-29T08:22:11.259Z,2.95
2022-12-29T08:24:40.373Z,2.40
2022-12-29T08:27:19.678Z,3.30
2022-12-29T08:29:50.108Z,2.70
2022-12-29T08:32:19.983Z,2.90
2022-12-29T08:34:49.129Z,3.10
2022-12-29T08:37:18.192Z,3.70
2022-12-29T08:39:47.296Z,2.80
2022-12-29T08:42:16.626Z,3.50
2022-12-29T08:44:45.697Z,2.58
2022-12-29T08:47:15.027Z,3.28
2022-12-29T08:49:44.180Z,2.65
2022-12-29T08:52:13.279Z,3.10
2022-12-29T08:54:42.340Z,3.13
2022-12-29T08:57:11.740Z,2.92
2022-12-29T08:59:40.880Z,3.40
2022-12-29T09:02:17.471Z,2.90
2022-12-29T09:04:49.547Z,3.83
2022-12-29T09:07:18.719Z,3.05
2022-12-29T09:09:48.017Z,3.55
2022-12-29T09:12:18.403Z,4.78
2022-12-29T09:14:49.734Z,3.28
2022-12-29T09:17:36.827Z,3.45
2022-12-29T09:20:07.345Z,3.33
2022-12-29T09:22:36.714Z,2.50
2022-12-29T09:25:06.610Z,2.78
2022-12-29T09:27:35.766Z,2.65
2022-12-29T09:30:08.573Z,2.95
2022-12-29T09:32:42.102Z,2.72
2022-12-29T09:35:15.288Z,3.10
2022-12-29T09:37:45.627Z,2.83
2022-12-29T09:40:33.686Z,2.88
2022-12-29T09:46:15.554Z,3.72
2022-12-29T09:48:52.488Z,2.85
2022-12-29T09:51:27.820Z,2.28
2022-12-29T09:54:18.817Z,3.88
2022-12-29T09:56:50.176Z,3.40
2022-12-29T09:59:34.771Z,3.85
2022-12-29T10:02:40.822Z,3.60
2022-12-29T10:05:42.971Z,4.03
2022-12-29T10:08:31.472Z,4.85
2022-12-29T10:11:23.672Z,4.88
2022-12-29T10:14:16.341Z,5.03
2022-12-29T10:16:57.605Z,5.53
2022-12-29T10:20:05.907Z,3.70
2022-12-29T10:22:59.331Z,8.02
2022-12-29T10:25:34.799Z,4.18
2022-12-29T10:28:17.154Z,4.60
2022-12-29T10:30:50.026Z,5.55
2022-12-29T10:33:43.544Z,4.38
2022-12-29T10:36:40.660Z,5.47
2022-12-29T10:39:37.071Z,5.45
2022-12-29T10:42:40.083Z,4.40
2022-12-29T10:45:17.781Z,4.32
2022-12-29T10:48:27.137Z,5.60
2022-12-29T10:51:03.847Z,5.60
2022-12-29T10:53:56.746Z,5.68
2022-12-29T10:56:39.701Z,6.20
2022-12-29T10:59:37.835Z,6.05
2022-12-29T11:05:06.130Z,6.35
2022-12-29T11:07:35.710Z,5.80
2022-12-29T11:10:38.526Z,5.93
2022-12-29T11:13:20.860Z,6.40
2022-12-29T11:15:53.423Z,6.00
2022-12-29T11:18:27.140Z,6.53
2022-12-29T11:21:02.140Z,6.53
2022-12-29T11:23:40.704Z,7.05
2022-12-29T11:26:34.100Z,7.60
2022-12-29T11:29:24.940Z,6.90
2022-12-29T11:32:12.255Z,7.13
2022-12-29T11:34:41.531Z,7.38
2022-12-29T11:37:23.333Z,7.13
2022-12-29T11:40:06.517Z,7.72
2022-12-29T11:43:01.100Z,7.70
2022-12-29T11:45:48.838Z,7.45
2022-12-29T11:48:23.568Z,7.85
2022-12-29T11:50:57.816Z,7.90
2022-12-29T11:53:40.693Z,7.72
2022-12-29T11:56:18.650Z,7.47
2022-12-29T11:58:51.348Z,8.13
2022-12-29T12:01:41.168Z,8.30
2022-12-29T12:04:26.969Z,8.68
2022-12-29T12:07:19.478Z,7.55
2022-12-29T12:10:08.035Z,7.63
2022-12-29T12:13:08.235Z,7.43
2022-12-29T12:15:52.771Z,8.10
2022-12-29T12:18:46.493Z,7.68
2022-12-29T12:21:41.771Z,8.20
2022-12-29T12:24:54.197Z,6.90
2022-12-29T12:27:38.131Z,7.10
2022-12-29T12:30:21.281Z,8.05
2022-12-29T12:33:23.351Z,8.00
2022-12-29T12:36:27.583Z,7.93
2022-12-29T12:39:29.143Z,7.85
2022-12-29T12:42:26.566Z,8.18
2022-12-29T12:45:25.823Z,7.07
2022-12-29T12:48:34.095Z,7.05
2022-12-29T12:51:48.273Z,7.40
2022-12-29T12:55:11.029Z,6.72
2022-12-29T12:57:51.763Z,6.95
2022-12-29T13:00:25.260Z,7.07
2022-12-29T13:03:48.098Z,6.63
2022-12-29T13:06:38.275Z,7.10
2022-12-29T13:09:32.173Z,7.72
2022-12-29T13:13:02.693Z,7.93
2022-12-29T13:16:27.206Z,6.32
2022-12-29T13:19:20.097Z,7.90
2022-12-29T13:22:06.637Z,7.57
2022-12-29T13:25:09.392Z,9.70
2022-12-29T13:27:49.081Z,7.93
2022-12-29T13:30:25.501Z,7.30
2022-12-29T13:33:26.647Z,6.35
2022-12-29T13:36:26.187Z,7.63
2022-12-29T13:39:24.663Z,7.38
2022-12-29T13:42:00.115Z,7.57
2022-12-29T13:45:09.149Z,7.20
2022-12-29T13:47:58.374Z,6.63
2022-12-29T13:50:34.550Z,6.13
2022-12-29T13:53:44.973Z,6.30
2022-12-29T13:56:34.077Z,7.20
2022-12-29T13:59:19.152Z,7.20
2022-12-29T14:02:35.116Z,6.82
2022-12-29T14:05:30.242Z,7.28
2022-12-29T14:08:07.781Z,6.32
2022-12-29T14:10:52.623Z,7.40
2022-12-29T14:13:29.127Z,8.40
2022-12-29T14:16:04.836Z,8.02
2022-12-29T14:18:45.855Z,7.80
2022-12-29T14:21:35.302Z,9.13
2022-12-29T14:24:43.742Z,8.57
2022-12-29T14:27:12.875Z,8.18
2022-12-29T14:29:44.319Z,7.53
2022-12-29T14:32:28.901Z,8.13
2022-12-29T14:35:05.911Z,8.18
2022-12-29T14:37:37.838Z,7.50
2022-12-29T14:40:11.373Z,7.72
2022-12-29T14:42:43.761Z,6.97
2022-12-29T14:45:19.005Z,6.47
2022-12-29T14:47:53.339Z,6.35
2022-12-29T14:50:41.699Z,6.28
2022-12-29T14:56:22.805Z,6.13
2022-12-29T14:59:03.025Z,6.22
2022-12-29T15:01:57.760Z,6.18
2022-12-29T15:04:35.677Z,6.00
2022-12-29T15:07:11.283Z,5.68
2022-12-29T15:09:54.752Z,5.72
2022-12-29T15:12:37.765Z,5.70
2022-12-29T15:15:32.762Z,6.40
2022-12-29T15:18:27.439Z,6.03
2022-12-29T15:21:08.561Z,5.50
2022-12-29T15:23:39.634Z,6.03
2022-12-29T15:26:10.802Z,6.13
2022-12-29T15:28:49.362Z,5.63
2022-12-29T15:34:14.955Z,5.60
2022-12-29T15:36:44.515Z,5.53
2022-12-29T15:39:33.268Z,8.32
2022-12-29T15:42:38.631Z,6.32
2022-12-29T15:45:14.595Z,6.25
2022-12-29T15:47:50.721Z,7.07
2022-12-29T15:50:40.763Z,6.35
2022-12-29T15:53:35.564Z,6.15
2022-12-29T15:56:12.264Z,6.38
2022-12-29T15:58:52.308Z,6.40
2022-12-29T16:01:34.796Z,6.40
2022-12-29T16:07:06.276Z,6.03
2022-12-29T16:09:47.585Z,5.97
2022-12-29T16:12:27.535Z,6.25
2022-12-29T16:17:53.654Z,6.43
2022-12-29T16:20:43.481Z,6.07
2022-12-29T16:23:32.557Z,7.68
2022-12-29T16:26:02.620Z,7.63
2022-12-29T16:28:45.623Z,6.78
2022-12-29T16:31:25.391Z,6.78
2022-12-29T16:33:57.964Z,5.90
2022-12-29T16:36:28.366Z,6.38
2022-12-29T16:39:33.696Z,6.80
2022-12-29T16:42:23.405Z,5.95
2022-12-29T16:45:20.922Z,7.38
2022-12-29T16:48:09.847Z,6.23
2022-12-29T16:50:42.149Z,6.72
2022-12-29T16:53:31.862Z,8.15
2022-12-29T16:56:16.810Z,7.45
2022-12-29T16:58:52.886Z,9.52
2022-12-29T17:01:22.800Z,7.05
2022-12-29T17:04:15.046Z,7.10
2022-12-29T17:06:44.312Z,7.32
2022-12-29T17:09:39.294Z,6.57
2022-12-29T17:12:11.444Z,7.70
2022-12-29T17:14:54.752Z,9.00
2022-12-29T17:17:46.213Z,7.95
2022-12-29T17:20:41.725Z,7.68
2022-12-29T17:23:25.934Z,7.57
2022-12-29T17:25:56.939Z,8.27
2022-12-29T17:28:31.840Z,8.30
2022-12-29T17:31:06.745Z,8.05
2022-12-29T17:33:45.418Z,7.90
2022-12-29T17:36:14.904Z,8.80
2022-12-29T17:38:44.110Z,11.60
2022-12-29T17:41:17.568Z,9.55
2022-12-29T17:43:46.690Z,9.43
2022-12-29T17:46:15.826Z,9.18
2022-12-29T17:51:32.080Z,8.73
2022-12-29T17:54:01.184Z,9.88
2022-12-29T17:56:31.515Z,8.27
2022-12-29T17:59:00.689Z,8.35
2022-12-29T18:01:35.574Z,8.63
2022-12-29T18:04:06.714Z,8.63
2022-12-29T18:06:35.903Z,8.95
2022-12-29T18:09:05.750Z,9.38
2022-12-29T18:11:34.867Z,12.02
2022-12-29T18:14:04.168Z,9.10
2022-12-29T18:16:33.346Z,10.40
2022-12-29T18:19:02.551Z,8.90
2022-12-29T18:21:32.631Z,8.68
2022-12-29T18:24:01.697Z,7.82
2022-12-29T18:26:36.700Z,7.90
2022-12-29T18:29:05.779Z,7.47
2022-12-29T18:31:37.592Z,7.30
2022-12-29T18:34:16.917Z,7.53
2022-12-29T18:36:46.091Z,6.63
2022-12-29T18:39:15.168Z,7.38
2022-12-29T18:41:44.310Z,7.18
2022-12-29T18:44:16.919Z,7.10
2022-12-29T18:46:46.089Z,7.47
2022-12-29T18:49:15.199Z,6.60
2022-12-29T18:51:44.426Z,6.97
2022-12-29T18:54:34.473Z,7.28
2022-12-29T18:57:03.609Z,6.55
2022-12-29T18:59:32.747Z,7.57
2022-12-29T19:02:02.015Z,7.20
2022-12-29T19:04:31.105Z,7.63
2022-12-29T19:07:00.329Z,8.25
2022-12-29T19:09:29.424Z,8.15
2022-12-29T19:11:58.599Z,7.78
2022-12-29T19:14:27.697Z,10.73
2022-12-29T19:16:56.935Z,8.90
2022-12-29T19:19:28.470Z,8.32
2022-12-29T19:21:59.078Z,8.10
2022-12-29T19:24:28.245Z,7.75
2022-12-29T19:26:57.382Z,7.78
2022-12-29T19:29:26.576Z,6.55
2022-12-29T19:31:55.755Z,7.78
2022-12-29T19:34:24.849Z,7.70
2022-12-29T19:36:54.291Z,7.75
2022-12-29T19:39:23.376Z,8.63
2022-12-29T19:41:53.003Z,6.53
2022-12-29T19:44:22.417Z,8.55
2022-12-29T19:46:51.604Z,7.72
2022-12-29T19:49:21.033Z,8.10
2022-12-29T19:51:50.204Z,8.68
2022-12-29T19:54:19.400Z,7.85
2022-12-29T19:56:48.675Z,7.32
2022-12-29T19:59:17.837Z,7.25
2022-12-29T20:01:47.287Z,7.72
2022-12-29T20:04:16.646Z,7.07
2022-12-29T20:06:45.810Z,8.50
2022-12-29T20:09:14.997Z,9.23
2022-12-29T20:11:44.125Z,7.82
2022-12-29T20:14:13.393Z,7.90
2022-12-29T20:17:08.859Z,8.35
2022-12-29T20:19:31.871Z,8.00
2022-12-29T20:22:01.811Z,8.23
2022-12-29T20:24:32.889Z,7.60
2022-12-29T20:27:03.924Z,9.20
2022-12-29T20:29:40.299Z,9.10
2022-12-29T20:32:22.273Z,9.20
2022-12-29T20:34:51.477Z,8.32
2022-12-29T20:37:23.284Z,8.40
2022-12-29T20:39:52.508Z,8.80
2022-12-29T20:42:22.194Z,8.75
2022-12-29T20:44:51.793Z,8.43
2022-12-29T20:47:20.930Z,8.27
2022-12-29T20:49:50.007Z,8.88
2022-12-29T20:52:20.209Z,8.85
2022-12-29T20:54:49.408Z,9.85
2022-12-29T20:57:18.524Z,8.05
2022-12-29T20:59:47.651Z,8.75
2022-12-29T21:02:24.588Z,9.10
2022-12-29T21:07:42.937Z,9.90
2022-12-29T21:10:12.458Z,9.02
2022-12-29T21:12:41.637Z,8.95
2022-12-29T21:15:11.690Z,8.45
2022-12-29T21:17:40.746Z,8.90
2022-12-29T21:20:11.394Z,9.88
2022-12-29T21:22:40.504Z,10.48
2022-12-29T21:25:10.114Z,10.27
2022-12-29T21:27:39.331Z,10.43
2022-12-29T21:30:09.451Z,9.50
2022-12-29T21:32:38.540Z,9.82
2022-12-29T21:35:08.942Z,9.18
2022-12-29T21:37:38.603Z,10.15
2022-12-29T21:40:08.453Z,9.48
2022-12-29T21:42:37.878Z,9.85
2022-12-29T21:45:26.351Z,11.05
2022-12-29T21:48:19.407Z,10.27
2022-12-29T21:51:09.579Z,10.60
2022-12-29T21:53:43.420Z,10.45
2022-12-29T21:56:22.448Z,10.50
2022-12-29T21:59:11.286Z,9.75
2022-12-29T22:01:58.865Z,10.50
2022-12-29T22:04:46.495Z,9.90
2022-12-29T22:07:33.732Z,9.48
2022-12-29T22:10:20.977Z,10.48
2022-12-29T22:13:02.241Z,10.50
2022-12-29T22:15:41.066Z,10.70
2022-12-29T22:18:10.356Z,10.77
2022-12-29T22:20:39.578Z,10.50
2022-12-29T22:23:08.750Z,10.48
2022-12-29T22:25:41.692Z,13.27
2022-12-29T22:28:10.802Z,11.75
2022-12-29T22:30:40.261Z,10.88
2022-12-29T22:33:09.577Z,11.95
2022-12-29T22:35:39.205Z,12.70
2022-12-29T22:38:08.426Z,12.70
2022-12-29T22:40:37.546Z,13.05
2022-12-29T22:43:12.916Z,12.70
2022-12-29T22:45:43.047Z,14.55
2022-12-29T22:48:12.184Z,14.27
2022-12-29T22:50:41.626Z,13.38
2022-12-29T22:53:10.780Z,13.10
2022-12-29T22:55:39.847Z,14.25
2022-12-29T22:58:08.948Z,13.70
2022-12-29T23:00:38.083Z,14.85
2022-12-29T23:03:07.445Z,17.00
2022-12-29T23:05:36.685Z,19.27
2022-12-29T23:08:06.046Z,16.33
2022-12-29T23:10:35.178Z,16.20
2022-12-29T23:13:06.865Z,14.80
2022-12-29T23:15:36.091Z,13.68
2022-12-29T23:18:05.351Z,14.25
2022-12-29T23:20:34.463Z,15.50
2022-12-29T23:23:03.590Z,14.52
2022-12-29T23:25:32.820Z,15.15
2022-12-29T23:28:01.944Z,14.13
2022-12-29T23:30:31.104Z,15.05
2022-12-29T23:33:00.302Z,18.92
2022-12-29T23:35:29.354Z,16.08
2022-12-29T23:37:58.663Z,15.90
2022-12-29T23:40:27.735Z,15.35
2022-12-29T23:42:58.047Z,23.88
2022-12-29T23:45:27.242Z,37.85
2022-12-29T23:47:56.482Z,26.48
2022-12-29T23:50:25.634Z,20.00
2022-12-29T23:52:54.854Z,28.45
2022-12-29T23:55:24.118Z,37.90
2022-12-29T23:57:53.306Z,33.83
